WetterOnline ( https://www.wetteronline.de )

Wetter aktuell Linz

Aktuelles Wetter: Linz Flughafen (313m)

6-stündlich | Neueste Meldungen
Ortszeit Temperatur Wetter
Di, 13.04. 14:00 2.8° C bewölkt
Di, 13.04. 8:00 2.6° C bewölkt
Di, 13.04. 2:00 2.0° C leichter Regen
Mo, 12.04. 20:00 2.3° C Sprühregen
Mo, 12.04. 14:00 4.3° C leichter Regen
Mo, 12.04. 8:00 10.0° C bewölkt
Mo, 12.04. 2:00 8.7° C -
So, 11.04. 20:00 15.5° C -
Ortszeit Temperatur Wetter
Di, 13.04. 16:00 3.0° C leichte Schauer
Di, 13.04. 15:50 3° C leichte Schauer
Di, 13.04. 15:20 4° C leichte Schauer
Di, 13.04. 15:00 3.6° C leicht bewölkt
Di, 13.04. 14:50 4° C leicht bewölkt
Di, 13.04. 14:20 3° C bewölkt
Di, 13.04. 14:00 2.8° C bewölkt
Di, 13.04. 13:20 2° C leichte Schauer
Di, 13.04. 13:00 3.5° C bewölkt
Ortszeit Relative Feuchte Sichtweite
Di, 13.04. 14:00 90% 6 km
Di, 13.04. 8:00 85% 35 km
Di, 13.04. 2:00 94% 19 km
Mo, 12.04. 20:00 94% 22 km
Mo, 12.04. 14:00 89% 8 km
Mo, 12.04. 8:00 83% 40 km
Mo, 12.04. 2:00 72% 55 km
So, 11.04. 20:00 50% 60 km
Ortszeit Relative Feuchte Sichtweite
Di, 13.04. 16:00 89% 11 km
Di, 13.04. 15:50 87% >10 km
Di, 13.04. 15:20 81% >10 km
Di, 13.04. 15:00 85% 45 km
Di, 13.04. 14:50 81% >10 km
Di, 13.04. 14:20 93% >10 km
Di, 13.04. 14:00 90% 6 km
Di, 13.04. 13:20 93% 5.0 km
Di, 13.04. 13:00 83% 11 km
Ortszeit Niederschlagsmenge Niederschlagsart
Di, 13.04. 14:00 1 l/m2 in 6 Std. -
Di, 13.04. 8:00 0.2 l/m2 in 12 Std. -
Di, 13.04. 2:00 0.1 l/m2 in 6 Std. -
Mo, 12.04. 20:00 6 l/m2 in 12 Std. -
Mo, 12.04. 14:00 0.2 l/m2 in 6 Std. -
Mo, 12.04. 8:00 0.2 l/m2 in 12 Std. -
Mo, 12.04. 2:00 keine Meldung -
So, 11.04. 20:00 keine Meldung -
Ortszeit Niederschlagsmenge Niederschlagsart
Di, 13.04. 16:00 0.1 l/m2 in 1 Std. -
Di, 13.04. 15:50 keine Meldung -
Di, 13.04. 15:20 keine Meldung -
Di, 13.04. 15:00 0.0 l/m2 in 1 Std. -
Di, 13.04. 14:50 keine Meldung -
Di, 13.04. 14:20 keine Meldung -
Di, 13.04. 14:00 1.0 l/m2 in 1 Std. -
Di, 13.04. 13:20 keine Meldung -
Di, 13.04. 13:00 0.2 l/m2 in 1 Std. -
Ortszeit Stärke Spitze Richtung
km/h Bft. km/h Grad Sektor
Di, 13.04. 14:00 18 3 - 280° W
Di, 13.04. 8:00 18 3 - 290° W
Di, 13.04. 2:00 14 3 - 280° W
Mo, 12.04. 20:00 18 3 50 260° W
Mo, 12.04. 14:00 36 5 61 280° W
Mo, 12.04. 8:00 14 3 - 260° W
Mo, 12.04. 2:00 4 1 - - -
So, 11.04. 20:00 11 2 - 70° O
Ortszeit Stärke Spitze Richtung
km/h Bft. km/h Grad Sektor
Di, 13.04. 16:00 14 3 - 340° N
Di, 13.04. 15:50 15 3 - 340° N
Di, 13.04. 15:20 15 3 - 280° W
Di, 13.04. 15:00 14 3 - 300° NW
Di, 13.04. 14:50 13 3 - 300° NW
Di, 13.04. 14:20 19 3 - 290° W
Di, 13.04. 14:00 18 3 - 280° W
Di, 13.04. 13:20 24 4 - 310° NW
Di, 13.04. 13:00 14 3 - 280° W
Ortszeit Untergrenze Bedeckung Gattung
total tief tief mittel hoch
Di, 13.04. 14:00 180 m 8/8 5/8 - - -
Di, 13.04. 8:00 360 m 8/8 5/8 - - -
Di, 13.04. 2:00 210 m 8/8 5/8 - - -
Mo, 12.04. 20:00 210 m 8/8 5/8 - - -
Mo, 12.04. 14:00 360 m 8/8 5/8 - - -
Mo, 12.04. 8:00 600 m 8/8 6/8 - - -
Mo, 12.04. 2:00 - - - - - -
So, 11.04. 20:00 - - - - - -
Ortszeit Bedeckungsgrad in Achtel und Wolkenuntergrenze
Di, 13.04. 16:00 1(360m) 3(570m) 5(780m)
Di, 13.04. 15:50 1-2(360m) 3-4(570m) 5-7(780m)
Di, 13.04. 15:20 1-2(570m) 5-7(1020m)
Di, 13.04. 15:00 1(240m) 3(900m)
Di, 13.04. 14:50 1-2(240m) 3-4(900m)
Di, 13.04. 14:20 1-2(240m) 5-7(780m) 5-7(2100m)
Di, 13.04. 14:00 1(180m) 3(780m) 5(1140m)
Di, 13.04. 13:20 1-2(210m) 3-4(300m) 5-7(480m)
Di, 13.04. 13:00 1(360m) 3(510m) 5(960m)
Ortszeit Luftdruck NN (hPa) Tendenz (hPa in 3 Std.)
Di, 13.04. 14:00 1029 - 0,8
Di, 13.04. 8:00 1030 + 0,8
Di, 13.04. 2:00 1029 - 0,3
Mo, 12.04. 20:00 1028 + 2,1
Mo, 12.04. 14:00 1023 + 4,3
Mo, 12.04. 8:00 1016 + 1,5
Mo, 12.04. 2:00 1013 + 1,0
So, 11.04. 20:00 1010 - 0,1
Ortszeit Luftdruck NN (hPa) Tendenz (hPa in 3 Std.)
Di, 13.04. 16:00 1028 - 0,8
Di, 13.04. 15:50 1026 keine Meldung
Di, 13.04. 15:20 1027 keine Meldung
Di, 13.04. 15:00 1028 - 1,0
Di, 13.04. 14:50 1027 keine Meldung
Di, 13.04. 14:20 1027 keine Meldung
Di, 13.04. 14:00 1029 - 0,8
Di, 13.04. 13:20 1027 keine Meldung
Di, 13.04. 13:00 1029 - 0,6
Ortszeit Schneehöhe (cm)
Di, 13.04. 14:00 -
Di, 13.04. 8:00 -
Di, 13.04. 2:00 -
Mo, 12.04. 20:00 -
Mo, 12.04. 14:00 -
Mo, 12.04. 8:00 -
Mo, 12.04. 2:00 -
So, 11.04. 20:00 -
Ortszeit Schneehöhe (cm)
Di, 13.04. 16:00 -
Di, 13.04. 15:50 -
Di, 13.04. 15:20 -
Di, 13.04. 15:00 -
Di, 13.04. 14:50 -
Di, 13.04. 14:20 -
Di, 13.04. 14:00 -
Di, 13.04. 13:20 -
Di, 13.04. 13:00 -
Link zu dieser Seite / Seite empfehlen

Das Wetter in ...